Time;durP1;ratioP1;P1;durP2;ratioP2;P2;SDS_P1;SDS_P2;PMS_P1;PMS_P2;Temp;Humidity;BMP_temperature;BMP_pressure;BME280_temperature;BME280_humidity;BME280_pressure;Samples;Min_cycle;Max_cycle;Signal;HPM_P1;HPM_P2
2023/09/02 00:00:16;;;;;;;2.53;1.50;;;;;;;17.15;100.00;155768.59;4957220;28;20465;-88
2023/09/02 00:02:43;;;;;;;2.47;1.50;;;;;;;17.09;100.00;155751.63;4991499;28;20464;-88
2023/09/02 00:05:11;;;;;;;2.77;1.67;;;;;;;17.14;100.00;155764.66;4987164;28;20486;-87
2023/09/02 00:07:38;;;;;;;3.40;2.20;;;;;;;17.20;100.00;155781.59;4974784;28;20839;-88
2023/09/02 00:10:05;;;;;;;3.67;2.53;;;;;;;17.20;100.00;155780.28;4962534;28;20482;-88
2023/09/02 00:12:32;;;;;;;4.07;2.20;;;;;;;17.20;100.00;155780.28;4975015;28;20442;-88
2023/09/02 00:14:58;;;;;;;3.43;2.27;;;;;;;17.15;100.00;155767.28;4984319;28;20461;-87
2023/09/02 00:17:25;;;;;;;2.67;2.00;;;;;;;17.10;100.00;155755.56;4964953;28;20455;-88
2023/09/02 00:19:52;;;;;;;4.67;2.40;;;;;;;17.07;100.00;155747.75;4970399;28;20453;-88
2023/09/02 00:22:20;;;;;;;3.53;2.60;;;;;;;17.04;100.00;155741.25;4987160;28;20484;-87
2023/09/02 00:24:46;;;;;;;3.10;2.80;;;;;;;16.98;100.00;155725.63;4978554;28;20466;-87
2023/09/02 00:27:13;;;;;;;5.43;2.60;;;;;;;16.93;100.00;155712.63;4967635;28;20942;-87
2023/09/02 00:29:39;;;;;;;2.90;2.43;;;;;;;16.92;100.00;155708.69;4980526;28;20572;-88
2023/09/02 00:32:06;;;;;;;3.00;2.60;;;;;;;16.91;100.00;155707.44;4983778;28;20454;-87
2023/09/02 00:34:33;;;;;;;3.00;2.47;;;;;;;16.86;100.00;155694.41;4963749;28;20466;-87
2023/09/02 00:36:59;;;;;;;2.70;2.40;;;;;;;16.80;100.00;155678.78;4965803;28;20480;-87
2023/09/02 00:39:27;;;;;;;3.27;2.50;;;;;;;16.80;100.00;155678.78;4974254;28;20461;-87
2023/09/02 00:41:56;;;;;;;3.00;2.50;;;;;;;16.75;100.00;155665.78;4975484;28;20990;-87
2023/09/02 00:44:23;;;;;;;3.10;2.77;;;;;;;16.79;100.00;155676.19;4947693;28;21184;-87
2023/09/02 00:46:50;;;;;;;3.17;2.57;;;;;;;16.72;100.00;155657.97;4956325;28;20833;-87
2023/09/02 00:49:16;;;;;;;3.50;3.10;;;;;;;16.70;100.00;155652.78;4986673;28;20589;-87
2023/09/02 00:51:43;;;;;;;2.90;2.47;;;;;;;16.68;100.00;155647.53;4981248;28;20464;-87
2023/09/02 00:54:10;;;;;;;3.80;2.97;;;;;;;16.65;100.00;155638.47;4971547;28;20455;-87
2023/09/02 00:56:38;;;;;;;3.40;3.07;;;;;;;16.60;100.00;155625.47;4958152;28;20924;-87
2023/09/02 00:59:06;;;;;;;3.60;3.30;;;;;;;16.56;100.00;155616.34;4988095;28;20446;-87
2023/09/02 01:01:34;;;;;;;3.90;3.50;;;;;;;16.52;100.00;155605.88;4971376;28;20802;-87
2023/09/02 01:04:01;;;;;;;6.07;3.70;;;;;;;16.56;100.00;155616.34;4961944;28;20570;-87
2023/09/02 01:06:28;;;;;;;4.60;3.50;;;;;;;16.54;100.00;155611.16;4939089;29;20494;-87
2023/09/02 01:08:55;;;;;;;3.83;3.33;;;;;;;16.50;100.00;155600.66;4968382;28;20557;-87
2023/09/02 01:11:21;;;;;;;3.23;2.93;;;;;;;16.47;100.00;155591.59;4968674;28;20447;-87
2023/09/02 01:13:49;;;;;;;4.87;3.20;;;;;;;16.43;100.00;155583.78;4968604;28;20874;-86
2023/09/02 01:16:17;;;;;;;6.90;3.30;;;;;;;16.38;100.00;155569.47;4954409;28;20570;-87
2023/09/02 01:18:43;;;;;;;3.97;3.20;;;;;;;16.36;100.00;155565.56;4974580;28;20442;-87
2023/09/02 01:21:52;;;;;;;4.03;3.40;;;;;;;16.31;100.00;155551.25;4982209;28;20455;-87
2023/09/02 01:24:47;;;;;;;5.40;4.00;;;;;;;16.29;100.00;155547.34;4934877;28;20463;-87
2023/09/02 01:27:20;;;;;;;5.30;4.20;;;;;;;16.31;100.00;155552.56;4974184;28;20484;-87
2023/09/02 01:29:57;;;;;;;4.27;3.87;;;;;;;16.27;100.00;155540.84;4967996;28;20447;-87
2023/09/02 01:32:28;;;;;;;4.30;3.63;;;;;;;16.25;100.00;155535.66;4980222;28;20991;-87
2023/09/02 01:34:55;;;;;;;4.63;4.23;;;;;;;16.22;100.00;155529.16;4973456;28;20458;-87
2023/09/02 01:37:23;;;;;;;4.90;4.30;;;;;;;16.18;100.00;155518.75;4979848;28;20445;-87
2023/09/02 01:39:50;;;;;;;4.90;4.40;;;;;;;16.16;100.00;155513.53;4962809;28;20478;-87
2023/09/02 01:42:18;;;;;;;4.30;3.80;;;;;;;16.17;100.00;155516.16;4990005;28;20550;-86
2023/09/02 01:44:45;;;;;;;5.50;4.80;;;;;;;16.19;100.00;155521.38;4946866;28;20470;-87
2023/09/02 01:47:13;;;;;;;5.50;4.83;;;;;;;16.18;100.00;155518.75;4971417;28;20581;-87
2023/09/02 01:49:40;;;;;;;4.73;4.23;;;;;;;16.14;100.00;155507.06;4968982;28;20453;-87
2023/09/02 01:52:07;;;;;;;4.40;3.90;;;;;;;16.13;100.00;155504.44;4983556;28;20514;-87
2023/09/02 01:54:34;;;;;;;4.77;4.10;;;;;;;16.09;100.00;155494.06;4972928;28;20470;-87
2023/09/02 01:57:01;;;;;;;4.70;3.80;;;;;;;16.06;100.00;155486.25;4970544;28;20950;-87
2023/09/02 01:59:29;;;;;;;4.30;3.90;;;;;;;16.05;100.00;155483.63;4980428;28;20461;-87
2023/09/02 02:01:55;;;;;;;4.47;4.07;;;;;;;16.05;100.00;155483.63;4989417;28;20450;-88
2023/09/02 02:04:25;;;;;;;4.47;3.90;;;;;;;16.07;100.00;155488.88;4969496;28;20556;-87
2023/09/02 02:06:53;;;;;;;4.90;3.73;;;;;;;16.05;100.00;155483.63;4971798;28;20695;-87
2023/09/02 02:09:26;;;;;;;5.13;4.40;;;;;;;16.03;100.00;155478.44;4976098;28;20445;-88
2023/09/02 02:11:53;;;;;;;5.13;4.63;;;;;;;16.06;100.00;155486.25;4977371;28;20465;-87
2023/09/02 02:14:20;;;;;;;5.03;4.53;;;;;;;16.07;100.00;155490.13;4975836;28;20493;-88
2023/09/02 02:16:48;;;;;;;5.13;4.63;;;;;;;16.04;100.00;155482.38;4985498;28;20453;-88
2023/09/02 02:19:15;;;;;;;4.40;4.00;;;;;;;15.99;100.00;155469.31;4971547;28;20467;-87
2023/09/02 02:21:41;;;;;;;4.33;3.93;;;;;;;15.95;100.00;155458.94;4986770;28;20462;-87
2023/09/02 02:24:08;;;;;;;4.60;4.20;;;;;;;15.93;100.00;155453.75;4957531;28;20454;-87
2023/09/02 02:26:35;;;;;;;4.80;3.97;;;;;;;15.89;100.00;155443.31;4996450;28;20836;-88
2023/09/02 02:29:02;;;;;;;5.80;3.57;;;;;;;15.83;100.00;155429.03;4977467;28;20490;-88
2023/09/02 02:31:28;;;;;;;4.27;3.80;;;;;;;15.83;100.00;155427.75;4966290;28;20531;-88
2023/09/02 02:33:57;;;;;;;4.47;3.63;;;;;;;15.82;100.00;155426.44;4968438;28;20543;-88
2023/09/02 02:36:23;;;;;;;4.10;3.70;;;;;;;15.79;100.00;155417.34;4985689;28;20512;-88
2023/09/02 02:38:50;;;;;;;4.10;3.53;;;;;;;15.80;100.00;155421.25;4969248;28;20475;-88
2023/09/02 02:41:16;;;;;;;4.00;3.50;;;;;;;15.77;100.00;155413.47;4957898;28;20548;-88
2023/09/02 02:43:43;;;;;;;4.47;4.07;;;;;;;15.71;100.00;155397.84;4977231;28;21164;-87
2023/09/02 02:46:10;;;;;;;4.50;4.10;;;;;;;15.74;100.00;155405.66;4994115;28;20470;-88
2023/09/02 02:48:36;;;;;;;4.43;4.00;;;;;;;15.72;100.00;155400.47;4985782;28;20515;-88
2023/09/02 02:51:04;;;;;;;4.20;3.70;;;;;;;15.67;100.00;155387.41;4971353;28;20462;-87
2023/09/02 02:53:31;;;;;;;4.00;3.60;;;;;;;15.66;100.00;155383.53;4995064;28;20973;-87
2023/09/02 02:56:03;;;;;;;3.70;3.30;;;;;;;15.63;100.00;155377.03;4980977;28;20570;-87
2023/09/02 02:58:31;;;;;;;4.07;3.67;;;;;;;15.63;100.00;155377.03;4968176;28;20445;-88
2023/09/02 03:01:02;;;;;;;4.03;3.17;;;;;;;15.64;100.00;155379.66;4960337;28;20453;-88
2023/09/02 03:03:29;;;;;;;4.13;3.20;;;;;;;15.62;100.00;155374.41;4989101;28;20452;-88
2023/09/02 03:05:56;;;;;;;3.70;3.30;;;;;;;15.63;100.00;155377.03;4960215;28;20849;-88
2023/09/02 03:08:24;;;;;;;3.93;3.63;;;;;;;15.70;100.00;155395.22;4990695;28;21134;-87
2023/09/02 03:10:56;;;;;;;4.37;3.07;;;;;;;15.68;100.00;155390.03;4960362;28;20481;-88
2023/09/02 03:13:24;;;;;;;3.90;3.50;;;;;;;15.66;100.00;155384.84;4973595;28;20508;-88
2023/09/02 03:15:52;;;;;;;5.40;3.90;;;;;;;15.63;100.00;155377.03;4992003;28;20456;-88
2023/09/02 03:18:18;;;;;;;3.40;3.10;;;;;;;15.61;100.00;155371.84;4991783;28;20437;-88
2023/09/02 03:20:45;;;;;;;4.00;3.20;;;;;;;15.60;100.00;155367.91;4975507;28;20462;-88
2023/09/02 03:23:15;;;;;;;5.23;4.07;;;;;;;15.62;100.00;155374.41;4946134;28;20465;-87
2023/09/02 03:25:45;;;;;;;4.60;4.17;;;;;;;15.65;100.00;155382.22;4974157;28;20452;-88
2023/09/02 03:28:12;;;;;;;4.13;3.33;;;;;;;15.63;100.00;155377.03;4986093;28;20482;-88
2023/09/02 03:30:39;;;;;;;5.10;3.70;;;;;;;15.68;100.00;155390.03;4967294;28;20819;-88
2023/09/02 03:33:09;;;;;;;5.30;3.67;;;;;;;15.68;100.00;155390.03;4973538;28;21142;-88
2023/09/02 03:35:38;;;;;;;4.67;3.60;;;;;;;15.70;100.00;155395.22;4987915;28;20837;-88
2023/09/02 03:38:05;;;;;;;3.40;3.10;;;;;;;15.66;100.00;155384.84;4953323;28;20746;-86
2023/09/02 03:40:32;;;;;;;4.03;3.27;;;;;;;15.65;100.00;155382.22;4954317;28;21171;-86
2023/09/02 03:43:00;;;;;;;4.17;3.37;;;;;;;15.62;100.00;155373.16;5006725;28;20449;-86
2023/09/02 03:45:26;;;;;;;3.77;3.10;;;;;;;15.58;100.00;155362.75;4945922;28;20454;-86
2023/09/02 03:47:54;;;;;;;2.70;2.50;;;;;;;15.53;100.00;155351.06;4945585;28;20483;-86
2023/09/02 03:50:23;;;;;;;3.83;3.20;;;;;;;15.49;100.00;155339.38;4967151;28;20456;-87
2023/09/02 03:52:50;;;;;;;2.63;2.43;;;;;;;15.47;100.00;155334.13;4978367;28;20476;-86
2023/09/02 03:55:17;;;;;;;2.87;2.53;;;;;;;15.48;100.00;155338.06;4977604;28;20476;-86
2023/09/02 03:57:44;;;;;;;5.03;3.20;;;;;;;15.44;100.00;155327.59;4988161;28;20751;-87
2023/09/02 04:00:14;;;;;;;3.27;2.50;;;;;;;15.40;100.00;155317.22;4974916;28;20941;-88
2023/09/02 04:02:43;;;;;;;5.20;3.07;;;;;;;15.38;100.00;155311.97;4986656;28;20985;-88
2023/09/02 04:05:11;;;;;;;3.70;2.80;;;;;;;15.35;100.00;155304.22;4954978;28;20483;-88
2023/09/02 04:07:37;;;;;;;3.17;2.87;;;;;;;15.34;100.00;155300.28;4990398;28;20477;-88
2023/09/02 04:10:05;;;;;;;3.90;3.40;;;;;;;15.34;100.00;155301.59;4954702;28;20457;-87
2023/09/02 04:12:33;;;;;;;4.23;3.57;;;;;;;15.33;100.00;155298.97;4986569;28;20449;-88
2023/09/02 04:15:00;;;;;;;3.27;2.97;;;;;;;15.38;100.00;155310.72;4950136;28;20463;-87
2023/09/02 04:17:28;;;;;;;3.50;3.07;;;;;;;15.37;100.00;155309.41;4968662;28;20433;-85
2023/09/02 04:19:54;;;;;;;4.37;3.40;;;;;;;15.42;100.00;155322.41;4970221;28;20561;-85
2023/09/02 04:22:22;;;;;;;5.63;3.00;;;;;;;15.47;100.00;155335.44;4983564;28;20447;-84
2023/09/02 04:24:49;;;;;;;4.90;3.57;;;;;;;15.50;100.00;155343.25;4991030;28;20476;-85
2023/09/02 04:27:16;;;;;;;3.80;3.20;;;;;;;15.50;100.00;155341.94;4984458;28;20489;-85
2023/09/02 04:29:42;;;;;;;5.10;3.23;;;;;;;15.52;100.00;155348.44;4984936;28;20462;-85
2023/09/02 04:32:09;;;;;;;3.77;3.30;;;;;;;15.53;100.00;155351.06;4949914;28;20975;-85
2023/09/02 04:34:39;;;;;;;4.40;3.13;;;;;;;15.53;100.00;155349.75;4975367;28;20453;-85
2023/09/02 04:37:07;;;;;;;3.77;3.37;;;;;;;15.53;100.00;155351.06;4952008;28;20451;-85
2023/09/02 04:39:34;;;;;;;5.27;3.50;;;;;;;15.55;100.00;155356.25;4972885;28;20457;-85
2023/09/02 04:42:00;;;;;;;4.17;3.40;;;;;;;15.55;100.00;155356.25;4975872;28;20453;-85
2023/09/02 04:44:27;;;;;;;4.13;3.37;;;;;;;15.55;100.00;155354.94;4971117;28;20462;-85
2023/09/02 04:46:54;;;;;;;4.40;3.67;;;;;;;15.53;100.00;155349.75;4971354;28;20458;-84
2023/09/02 04:49:21;;;;;;;3.73;3.33;;;;;;;15.49;100.00;155340.63;4973745;28;20504;-85
2023/09/02 04:51:50;;;;;;;3.67;2.90;;;;;;;15.45;100.00;155330.19;4955254;28;20838;-84
2023/09/02 04:54:18;;;;;;;4.67;3.20;;;;;;;15.41;100.00;155319.78;4957138;28;20974;-85
2023/09/02 04:56:45;;;;;;;3.90;3.50;;;;;;;15.38;100.00;155311.97;4965882;28;20469;-84
2023/09/02 04:59:11;;;;;;;3.93;3.53;;;;;;;15.38;100.00;155311.97;4979897;28;20557;-84
2023/09/02 05:01:38;;;;;;;4.10;3.63;;;;;;;15.42;100.00;155322.41;4988224;28;20492;-85
2023/09/02 05:04:05;;;;;;;4.60;3.33;;;;;;;15.46;100.00;155332.81;4973032;28;20438;-85
2023/09/02 05:06:31;;;;;;;3.77;3.37;;;;;;;15.45;100.00;155328.91;4968579;28;20589;-85
2023/09/02 05:08:59;;;;;;;4.83;3.60;;;;;;;15.43;100.00;155325.00;4946723;28;20549;-84
2023/09/02 05:11:30;;;;;;;3.10;2.80;;;;;;;15.43;100.00;155325.00;4963951;28;20452;-84
2023/09/02 05:13:58;;;;;;;3.97;3.57;;;;;;;15.44;100.00;155327.59;4970711;28;20457;-85
2023/09/02 05:16:25;;;;;;;6.00;3.93;;;;;;;15.44;100.00;155327.59;4992123;28;20451;-85
2023/09/02 05:18:51;;;;;;;3.87;3.47;;;;;;;15.43;100.00;155325.00;4971411;28;20453;-84
2023/09/02 05:21:18;;;;;;;5.93;4.10;;;;;;;15.44;100.00;155326.28;4987573;28;20460;-85
2023/09/02 05:23:46;;;;;;;3.90;3.47;;;;;;;15.46;100.00;155332.81;4962242;28;20537;-85
2023/09/02 05:26:14;;;;;;;4.80;3.97;;;;;;;15.46;100.00;155332.81;4961624;28;20549;-85
2023/09/02 05:28:41;;;;;;;3.70;2.97;;;;;;;15.47;100.00;155335.44;4977539;28;20484;-85
2023/09/02 05:31:07;;;;;;;5.90;3.67;;;;;;;15.52;100.00;155348.44;4956572;28;20543;-84
2023/09/02 05:33:34;;;;;;;5.50;4.27;;;;;;;15.54;100.00;155353.63;4958730;28;20986;-84
2023/09/02 05:36:00;;;;;;;4.53;3.80;;;;;;;15.60;100.00;155367.91;4978949;28;20490;-84
2023/09/02 05:38:27;;;;;;;4.40;4.00;;;;;;;15.63;100.00;155375.72;4977928;28;20446;-84
2023/09/02 05:40:54;;;;;;;4.40;3.47;;;;;;;15.69;100.00;155392.66;4961213;28;20476;-84
2023/09/02 05:43:24;;;;;;;4.90;4.40;;;;;;;15.77;100.00;155412.13;4978181;28;20453;-84
2023/09/02 05:45:51;;;;;;;5.17;4.40;;;;;;;15.84;100.00;155431.63;4963202;28;20451;-84
2023/09/02 05:48:17;;;;;;;4.97;4.40;;;;;;;16.01;100.00;155474.56;4978486;28;20485;-84
2023/09/02 05:50:44;;;;;;;3.87;3.57;;;;;;;16.17;100.00;155514.88;4978987;28;20497;-84
2023/09/02 05:53:10;;;;;;;4.37;3.97;;;;;;;16.34;100.00;155560.34;4958340;28;20473;-84
2023/09/02 05:55:37;;;;;;;5.13;4.20;;;;;;;16.52;100.00;155605.88;4975300;28;20467;-85
2023/09/02 05:58:04;;;;;;;4.70;4.30;;;;;;;16.71;100.00;155654.03;4976721;28;20637;-84
2023/09/02 06:00:32;;;;;;;4.90;3.97;;;;;;;16.87;100.00;155697.00;4977726;28;20469;-84
2023/09/02 06:02:58;;;;;;;4.47;3.77;;;;;;;17.07;100.00;155746.44;4958640;28;20450;-84
2023/09/02 06:05:25;;;;;;;4.97;4.47;;;;;;;17.29;100.00;155803.72;4962210;28;20481;-86
2023/09/02 06:07:51;;;;;;;4.30;3.90;;;;;;;17.52;100.00;155863.59;4979273;28;20481;-86
2023/09/02 06:10:18;;;;;;;5.20;4.20;;;;;;;17.74;100.00;155919.63;4945771;28;20468;-87
2023/09/02 06:12:44;;;;;;;4.30;3.90;;;;;;;17.91;100.00;155965.16;4967279;28;20840;-87
2023/09/02 06:15:12;;;;;;;4.90;4.37;;;;;;;18.07;100.00;156006.84;4977361;28;20457;-87
2023/09/02 06:17:39;;;;;;;4.87;4.43;;;;;;;18.25;100.00;156053.72;4962008;28;20450;-87
2023/09/02 06:20:08;;;;;;;4.70;4.30;;;;;;;18.42;100.00;156096.72;4978007;28;20467;-87
2023/09/02 06:22:34;;;;;;;4.93;4.37;;;;;;;18.61;100.00;156146.22;4980829;28;20480;-87
2023/09/02 06:25:01;;;;;;;4.80;4.23;;;;;;;18.79;100.00;156191.84;4978194;28;20807;-86
2023/09/02 06:27:28;;;;;;;5.00;3.90;;;;;;;18.96;100.00;156236.13;4959695;28;20996;-87
2023/09/02 06:29:54;;;;;;;4.70;4.30;;;;;;;19.06;100.00;156260.91;4962314;28;20772;-88
2023/09/02 06:32:21;;;;;;;4.80;4.00;;;;;;;19.20;100.00;156298.69;4960953;28;20462;-88
2023/09/02 06:34:50;;;;;;;3.90;3.50;;;;;;;19.30;100.00;156323.47;4974067;28;20815;-87
2023/09/02 06:37:16;;;;;;;4.20;3.37;;;;;;;19.45;100.00;156362.63;4961048;28;20451;-88
2023/09/02 06:39:43;;;;;;;3.80;3.40;;;;;;;19.59;100.00;156397.81;4975809;28;20638;-88
2023/09/02 06:42:10;;;;;;;5.47;3.10;;;;;;;19.67;100.00;156418.69;4980521;28;20444;-87
2023/09/02 06:44:36;;;;;;;3.67;3.33;;;;;;;19.83;100.00;156461.66;4975996;28;20465;-84
2023/09/02 06:47:03;;;;;;;3.57;2.90;;;;;;;19.93;100.00;156486.47;4961100;28;20484;-87
2023/09/02 06:49:32;;;;;;;5.20;3.37;;;;;;;20.11;100.00;156532.09;4973623;28;20588;-80
2023/09/02 06:51:59;;;;;;;3.20;2.90;;;;;;;20.25;100.00;156570.00;4977211;28;20481;-89
2023/09/02 06:54:26;;;;;;;4.13;3.00;;;;;;;20.36;100.00;156597.38;4975468;28;20466;-88
2023/09/02 06:56:53;;;;;;;4.40;3.20;;;;;;;20.44;100.00;156619.53;4963180;28;20456;-87
2023/09/02 06:59:20;;;;;;;3.33;2.90;;;;;;;20.54;100.00;156644.34;4977285;28;20497;-87
2023/09/02 07:01:46;;;;;;;3.77;3.40;;;;;;;20.61;100.00;156663.91;4963215;28;20540;-87
2023/09/02 07:04:13;;;;;;;3.33;3.03;;;;;;;20.70;99.90;156684.78;4959272;28;20468;-87
2023/09/02 07:06:39;;;;;;;3.80;3.40;;;;;;;20.75;98.85;156697.81;4978257;28;20489;-87
2023/09/02 07:09:08;;;;;;;4.27;2.90;;;;;;;20.85;99.71;156725.22;4979116;28;20564;-88
2023/09/02 07:11:35;;;;;;;3.33;2.87;;;;;;;21.06;99.27;156780.06;4978258;28;20466;-87
2023/09/02 07:14:02;;;;;;;3.47;3.07;;;;;;;21.17;98.22;156807.47;4977136;28;20446;-87
2023/09/02 07:16:29;;;;;;;3.23;2.93;;;;;;;21.35;97.42;156854.44;4963254;28;20464;-87
2023/09/02 07:18:57;;;;;;;5.43;3.30;;;;;;;21.57;96.57;156910.59;4959033;28;20545;-87
2023/09/02 07:21:24;;;;;;;3.97;2.77;;;;;;;21.72;95.88;156951.06;4980847;28;20992;-86
2023/09/02 07:23:51;;;;;;;3.40;2.73;;;;;;;21.80;95.18;156971.94;4981072;28;20543;-87
2023/09/02 07:26:19;;;;;;;3.40;3.10;;;;;;;21.82;94.50;156975.84;4979320;28;20466;-86
2023/09/02 07:28:45;;;;;;;3.67;2.50;;;;;;;21.95;94.29;157008.56;4982619;28;20485;-87
2023/09/02 07:31:12;;;;;;;4.33;3.00;;;;;;;22.17;93.36;157067.31;4983220;28;20458;-87
2023/09/02 07:33:39;;;;;;;4.20;2.40;;;;;;;22.33;92.13;157107.78;4971882;28;20481;-87
2023/09/02 07:36:09;;;;;;;3.67;2.97;;;;;;;22.48;90.79;157145.69;4977400;28;20485;-87
2023/09/02 07:38:36;;;;;;;3.20;2.90;;;;;;;22.55;91.22;157165.28;4959430;28;21156;-86
2023/09/02 07:41:03;;;;;;;3.23;2.50;;;;;;;22.78;89.12;157225.41;4979127;28;20452;-86
2023/09/02 07:43:31;;;;;;;2.73;2.03;;;;;;;22.99;89.06;157280.28;4972533;28;20453;-87
2023/09/02 07:45:58;;;;;;;4.77;2.80;;;;;;;23.06;87.68;157296.00;4979744;28;20455;-87
2023/09/02 07:48:25;;;;;;;4.00;2.40;;;;;;;23.23;86.63;157340.41;4979807;28;20470;-87
2023/09/02 07:50:51;;;;;;;3.50;2.73;;;;;;;23.33;86.86;157366.53;4979771;28;20581;-86
2023/09/02 07:53:18;;;;;;;2.90;2.50;;;;;;;23.40;86.33;157384.91;4978083;28;20990;-87
2023/09/02 07:55:45;;;;;;;4.50;2.23;;;;;;;23.35;84.35;157371.78;4980871;28;20492;-87
2023/09/02 07:58:11;;;;;;;2.80;2.40;;;;;;;23.40;84.32;157384.91;4976709;28;20459;-88
2023/09/02 08:00:39;;;;;;;4.00;3.20;;;;;;;23.44;84.60;157395.34;4978039;28;20464;-87
2023/09/02 08:03:06;;;;;;;3.67;2.73;;;;;;;23.45;83.47;157397.97;4971099;28;20975;-87
2023/09/02 08:05:33;;;;;;;3.33;2.40;;;;;;;23.46;86.16;157401.88;4977983;28;20481;-88
2023/09/02 08:08:00;;;;;;;3.10;2.63;;;;;;;23.48;86.50;157405.81;4978265;28;20500;-88
2023/09/02 08:10:26;;;;;;;3.00;2.40;;;;;;;23.51;86.56;157414.94;4981526;28;21122;-88
2023/09/02 08:12:53;;;;;;;5.17;2.93;;;;;;;23.61;84.28;157439.81;4965856;28;20524;-88
2023/09/02 08:15:20;;;;;;;6.07;2.80;;;;;;;23.69;83.18;157459.41;4984774;28;21045;-88
2023/09/02 08:17:47;;;;;;;5.57;2.60;;;;;;;23.82;82.78;157494.72;4979574;28;20529;-88
2023/09/02 08:20:14;;;;;;;3.00;2.70;;;;;;;23.97;83.50;157532.59;4981676;28;20879;-88
2023/09/02 08:22:42;;;;;;;6.60;3.50;;;;;;;24.00;80.72;157541.78;4964135;28;20794;-88
2023/09/02 08:25:09;;;;;;;4.03;2.67;;;;;;;24.13;81.42;157575.81;4981203;28;20824;-88
2023/09/02 08:27:36;;;;;;;3.73;3.10;;;;;;;24.11;80.07;157570.59;4965850;28;20457;-88
2023/09/02 08:30:04;;;;;;;3.10;2.73;;;;;;;24.00;79.84;157541.78;4981665;28;20571;-88
2023/09/02 08:32:31;;;;;;;2.53;2.30;;;;;;;24.09;81.78;157565.34;4985665;28;20460;-88
2023/09/02 08:34:59;;;;;;;4.20;2.70;;;;;;;24.15;84.76;157581.03;4953883;28;20457;-88
2023/09/02 08:37:26;;;;;;;3.07;2.40;;;;;;;24.12;85.20;157571.88;4979174;28;20454;-88
2023/09/02 08:39:52;;;;;;;6.00;2.60;;;;;;;24.11;84.17;157570.59;4979872;28;20454;-88
2023/09/02 08:42:19;;;;;;;3.67;2.63;;;;;;;24.26;85.61;157607.19;4965544;28;20461;-88
2023/09/02 08:44:47;;;;;;;3.23;2.70;;;;;;;24.25;84.64;157604.59;4952196;28;21018;-87
2023/09/02 08:47:15;;;;;;;3.70;3.03;;;;;;;24.37;82.29;157637.28;4981214;28;20594;-88
2023/09/02 08:49:42;;;;;;;2.73;2.40;;;;;;;24.50;81.94;157669.97;4982841;28;20494;-86
2023/09/02 08:52:10;;;;;;;3.57;2.77;;;;;;;24.57;80.94;157688.31;4985347;28;20457;-87
2023/09/02 08:54:40;;;;;;;3.63;2.20;;;;;;;24.62;80.92;157701.38;4980043;28;20453;-87
2023/09/02 08:57:07;;;;;;;2.83;2.40;;;;;;;24.67;84.81;157714.47;4980306;28;20458;-88
2023/09/02 08:59:36;;;;;;;2.57;2.20;;;;;;;24.58;84.52;157690.91;4982616;28;20554;-87
2023/09/02 09:02:04;;;;;;;3.10;2.60;;;;;;;24.56;83.20;157685.69;4965064;28;20958;-87
2023/09/02 09:04:33;;;;;;;3.83;2.40;;;;;;;24.57;84.77;157689.59;4982363;28;20485;-87
2023/09/02 09:07:00;;;;;;;3.70;2.40;;;;;;;24.57;81.99;157689.59;4965869;28;20450;-87
2023/09/02 09:09:28;;;;;;;3.43;2.50;;;;;;;24.62;83.27;157701.38;4980244;28;20500;-87
2023/09/02 09:11:57;;;;;;;2.57;2.37;;;;;;;24.50;81.37;157669.97;4981168;28;20460;-87
2023/09/02 09:14:24;;;;;;;5.03;2.60;;;;;;;24.57;82.25;157688.31;4980356;28;21096;-79
2023/09/02 09:16:52;;;;;;;3.10;2.80;;;;;;;24.55;79.67;157684.38;4982340;28;20464;-87
2023/09/02 09:19:19;;;;;;;3.87;2.30;;;;;;;24.71;78.81;157724.91;4980321;28;20463;-87
2023/09/02 09:21:46;;;;;;;2.80;2.43;;;;;;;24.80;79.93;157748.53;4964018;28;20461;-87
2023/09/02 09:24:13;;;;;;;2.77;1.77;;;;;;;24.76;79.49;157737.97;4982362;28;20577;-87
2023/09/02 09:26:43;;;;;;;3.07;2.67;;;;;;;24.95;77.77;157786.44;4981575;28;20536;-87
2023/09/02 09:29:12;;;;;;;4.93;2.30;;;;;;;25.08;76.52;157821.78;4981841;28;20476;-88
2023/09/02 09:31:38;;;;;;;3.73;2.97;;;;;;;25.03;75.69;157808.69;4977677;28;20867;-87
2023/09/02 09:34:06;;;;;;;3.37;2.40;;;;;;;24.99;75.87;157798.25;4980054;28;20485;-87
2023/09/02 09:36:33;;;;;;;4.17;2.20;;;;;;;24.94;76.09;157783.84;4983270;28;20438;-87
2023/09/02 09:39:01;;;;;;;2.53;2.13;;;;;;;25.10;73.56;157825.75;4982451;28;20449;-88
2023/09/02 09:41:28;;;;;;;2.57;2.00;;;;;;;25.07;73.89;157817.88;4962579;28;20454;-87
2023/09/02 09:44:07;;;;;;;2.40;2.17;;;;;;;25.11;73.93;157829.63;4963730;28;20455;-87
2023/09/02 09:46:35;;;;;;;3.93;2.00;;;;;;;25.01;72.99;157803.47;4978391;28;20458;-87
2023/09/02 09:49:02;;;;;;;2.40;1.80;;;;;;;25.07;72.47;157817.88;4961702;28;20469;-88
2023/09/02 09:51:29;;;;;;;3.73;2.20;;;;;;;25.13;69.47;157834.84;4977770;28;20857;-87
2023/09/02 09:53:56;;;;;;;3.27;2.13;;;;;;;25.08;68.54;157821.78;4977571;28;20990;-87
2023/09/02 09:56:23;;;;;;;2.80;2.50;;;;;;;24.95;72.39;157786.44;4981339;28;20512;-87
2023/09/02 09:58:50;;;;;;;2.10;1.60;;;;;;;24.96;70.14;157789.09;4963543;28;21085;-87
2023/09/02 10:01:25;;;;;;;3.57;1.73;;;;;;;25.02;67.94;157806.06;4980624;28;20460;-89
2023/09/02 10:03:54;;;;;;;2.70;2.07;;;;;;;25.07;71.28;157817.88;4980896;28;20446;-88
2023/09/02 10:06:21;;;;;;;3.17;1.97;;;;;;;25.07;69.44;157819.16;4975763;28;20483;-88
2023/09/02 10:08:58;;;;;;;6.27;2.40;;;;;;;25.13;68.02;157834.84;4994981;28;20904;-88
2023/09/02 10:11:26;;;;;;;2.63;2.10;;;;;;;25.23;66.93;157859.75;4962692;28;21293;-88
2023/09/02 10:13:54;;;;;;;2.83;1.67;;;;;;;25.26;63.35;157868.88;4974556;28;21389;-89
2023/09/02 10:16:25;;;;;;;5.30;2.20;;;;;;;25.13;64.76;157834.84;4961339;28;20462;-89
2023/09/02 10:18:53;;;;;;;1.87;1.60;;;;;;;25.16;65.15;157842.72;4980328;28;21044;-89
2023/09/02 10:21:21;;;;;;;5.23;1.77;;;;;;;25.28;62.27;157872.84;4979298;28;20462;-89
2023/09/02 10:23:54;;;;;;;2.47;1.90;;;;;;;25.21;63.19;157855.81;4979267;28;20461;-88
2023/09/02 10:26:25;;;;;;;2.00;1.50;;;;;;;25.15;65.80;157838.81;4977791;28;20527;-88
2023/09/02 10:28:56;;;;;;;2.50;1.97;;;;;;;25.08;70.17;157821.78;4972444;28;20477;-89
2023/09/02 10:31:23;;;;;;;3.10;1.83;;;;;;;24.97;65.54;157791.66;4977716;28;20445;-89
2023/09/02 10:34:04;;;;;;;2.80;1.90;;;;;;;25.01;65.07;157803.47;4976613;28;20484;-88
2023/09/02 10:36:33;;;;;;;3.37;1.73;;;;;;;25.06;65.61;157816.56;4961582;28;20468;-88
2023/09/02 10:39:03;;;;;;;2.97;1.73;;;;;;;25.03;70.41;157808.69;4979901;28;20469;-88
2023/09/02 10:41:31;;;;;;;1.93;1.60;;;;;;;25.03;63.34;157808.69;4980446;28;20486;-88
2023/09/02 10:43:57;;;;;;;2.70;2.00;;;;;;;25.24;59.86;157863.66;4977766;28;20448;-89
2023/09/02 10:46:24;;;;;;;1.67;1.37;;;;;;;25.28;62.12;157874.09;4979434;28;20465;-88
2023/09/02 10:48:51;;;;;;;2.33;1.60;;;;;;;25.39;60.80;157901.59;4959015;28;20874;-88
2023/09/02 10:51:19;;;;;;;3.23;1.57;;;;;;;25.29;60.31;157876.75;4977668;28;20571;-88
2023/09/02 10:53:59;;;;;;;2.90;1.63;;;;;;;25.24;64.04;157863.66;4977446;28;20453;-88
2023/09/02 10:56:27;;;;;;;1.77;1.40;;;;;;;25.28;60.81;157874.09;4957488;28;21059;-88
2023/09/02 10:58:53;;;;;;;2.43;2.13;;;;;;;25.16;62.34;157842.72;4978115;28;20457;-87
2023/09/02 11:01:20;;;;;;;2.10;1.80;;;;;;;25.17;63.58;157844.03;4978105;28;20454;-89
2023/09/02 11:03:48;;;;;;;2.30;1.83;;;;;;;25.15;62.47;157840.09;4978113;28;20466;-88
2023/09/02 11:06:16;;;;;;;1.80;1.37;;;;;;;25.35;61.14;157892.47;4975946;28;20492;-89
2023/09/02 11:08:48;;;;;;;2.53;1.50;;;;;;;25.43;60.28;157913.41;4979507;28;20972;-88
2023/09/02 11:11:15;;;;;;;2.20;1.70;;;;;;;25.43;61.27;157912.09;4983536;28;20469;-89
2023/09/02 11:14:19;;;;;;;2.57;1.40;;;;;;;25.32;61.81;157883.28;4981760;28;20457;-88
2023/09/02 11:16:46;;;;;;;2.53;1.83;;;;;;;25.40;60.27;157905.53;4978454;28;20488;-80
2023/09/02 11:19:12;;;;;;;2.03;1.80;;;;;;;25.52;59.55;157935.72;4977938;28;20811;-87
2023/09/02 11:21:42;;;;;;;3.30;1.73;;;;;;;25.50;59.78;157929.13;4976286;28;20457;-84